Time;durP1;ratioP1;P1;durP2;ratioP2;P2;SDS_P1;SDS_P2;PMS_P1;PMS_P2;Temp;Humidity;BMP_temperature;BMP_pressure;BME280_temperature;BME280_humidity;BME280_pressure;Samples;Min_cycle;Max_cycle;Signal;HPM_P1;HPM_P2
2023/01/09 00:02:12;;;;;;;19.13;14.65;;;;;;;2.62;80.10;98006.81;5108695;28;20036;-74
2023/01/09 00:04:39;;;;;;;16.95;13.68;;;;;;;2.28;80.10;97950.78;5110885;28;20040;-76
2023/01/09 00:07:06;;;;;;;19.77;14.10;;;;;;;-0.40;79.66;97493.50;5110291;28;20052;-74
2023/01/09 00:09:32;;;;;;;20.02;14.55;;;;;;;2.63;80.09;97992.81;5110583;28;20226;-75
2023/01/09 00:12:01;;;;;;;20.40;16.00;;;;;;;2.66;80.12;97969.13;5108213;28;20048;-75
2023/01/09 00:14:28;;;;;;;19.75;14.77;;;;;;;2.28;80.06;97903.72;5108281;28;20048;-75
2023/01/09 00:16:55;;;;;;;17.65;14.05;;;;;;;2.71;80.09;97973.25;5108788;28;20036;-75
2023/01/09 00:19:23;;;;;;;18.33;13.27;;;;;;;2.75;79.92;97976.56;5109289;28;20070;-74
2023/01/09 00:21:50;;;;;;;21.65;14.68;;;;;;;2.77;79.95;97977.34;5108105;28;20300;-75
2023/01/09 00:24:17;;;;;;;17.55;14.40;;;;;;;2.80;79.92;97978.06;5107170;28;20032;-75
2023/01/09 00:26:44;;;;;;;18.30;13.38;;;;;;;2.80;79.76;97975.44;5108011;28;20036;-75
2023/01/09 00:29:11;;;;;;;19.40;13.65;;;;;;;2.79;79.87;97963.28;5107264;28;20052;-75
2023/01/09 00:31:38;;;;;;;20.35;14.88;;;;;;;2.81;79.83;97957.97;5107244;28;20044;-75
2023/01/09 00:34:09;;;;;;;23.35;14.73;;;;;;;2.80;79.91;97967.59;5108630;28;20111;-75
2023/01/09 00:36:37;;;;;;;20.45;14.38;;;;;;;2.80;79.88;97971.97;5108863;28;20055;-75
2023/01/09 00:39:05;;;;;;;20.70;15.05;;;;;;;2.81;79.82;97966.66;5108567;28;20195;-75
2023/01/09 00:41:35;;;;;;;21.70;14.85;;;;;;;2.82;79.88;97971.00;5107315;28;20040;-75
2023/01/09 00:44:06;;;;;;;19.85;14.57;;;;;;;2.83;80.00;97969.22;5107716;28;20311;-75
2023/01/09 00:46:36;;;;;;;20.58;14.27;;;;;;;2.59;80.05;97918.03;5108248;28;20055;-75
2023/01/09 00:49:05;;;;;;;21.45;15.20;;;;;;;2.81;79.92;97945.75;5109406;28;20040;-74
2023/01/09 00:51:32;;;;;;;21.73;15.15;;;;;;;2.78;80.11;97945.03;5108373;28;20046;-74
2023/01/09 00:54:02;;;;;;;21.20;14.48;;;;;;;2.76;80.02;97942.50;5107085;28;20044;-74
2023/01/09 00:56:29;;;;;;;19.00;14.02;;;;;;;2.75;80.24;97935.56;5107439;28;20050;-74
2023/01/09 00:58:56;;;;;;;18.15;13.48;;;;;;;2.77;80.05;97936.34;5108010;28;20046;-74
2023/01/09 01:01:23;;;;;;;19.30;14.85;;;;;;;2.77;80.08;97941.56;5107030;28;20066;-74
2023/01/09 01:03:50;;;;;;;19.90;14.02;;;;;;;2.34;80.16;97864.22;5106364;28;20044;-75
2023/01/09 01:09:03;;;;;;;19.93;13.30;;;;;;;2.70;80.33;97916.59;5106825;28;20048;-75
2023/01/09 01:11:32;;;;;;;16.85;13.27;;;;;;;2.06;80.29;97812.38;5089833;28;20040;-75
2023/01/09 01:14:00;;;;;;;18.67;15.75;;;;;;;2.04;80.37;97800.28;5106738;28;20035;-75
2023/01/09 01:16:27;;;;;;;21.00;15.25;;;;;;;2.16;80.47;97829.31;5107396;28;20054;-74
2023/01/09 01:18:54;;;;;;;21.80;15.20;;;;;;;2.60;80.67;97909.25;5107611;28;20173;-74
2023/01/09 01:21:20;;;;;;;21.67;15.43;;;;;;;2.53;80.99;97917.38;5108848;28;20046;-75
2023/01/09 01:23:47;;;;;;;18.02;14.32;;;;;;;2.49;81.10;97907.13;5107659;28;20032;-74
2023/01/09 01:26:17;;;;;;;18.90;14.65;;;;;;;-5.06;80.28;96817.78;5109194;28;20040;-74
2023/01/09 01:28:44;;;;;;;18.80;14.13;;;;;;;2.49;81.01;97904.53;5108379;28;20046;-75
2023/01/09 01:31:19;;;;;;;21.75;16.33;;;;;;;2.06;81.10;97835.88;5108634;28;20058;-75
2023/01/09 01:33:46;;;;;;;18.60;15.13;;;;;;;2.49;80.97;97900.13;5108613;28;20081;-75
2023/01/09 01:36:15;;;;;;;18.92;14.48;;;;;;;2.27;81.07;97852.34;5107788;28;20052;-75
2023/01/09 01:38:41;;;;;;;15.68;12.60;;;;;;;-0.02;80.80;97485.03;5108506;28;20069;-75
2023/01/09 01:41:08;;;;;;;17.95;13.95;;;;;;;2.51;80.98;97881.75;5091890;28;20036;-74
2023/01/09 01:43:51;;;;;;;18.75;14.68;;;;;;;2.52;81.08;97873.84;5109960;28;20047;-75
2023/01/09 01:46:19;;;;;;;18.70;14.45;;;;;;;1.48;80.60;97707.88;5108690;28;20097;-74
2023/01/09 01:48:48;;;;;;;18.48;14.50;;;;;;;2.55;80.86;97875.47;5108718;28;20139;-74
2023/01/09 01:51:17;;;;;;;16.65;14.25;;;;;;;2.59;80.88;97877.03;5108763;28;20036;-75
2023/01/09 01:53:50;;;;;;;20.33;14.05;;;;;;;1.38;80.80;97682.25;5107854;28;20040;-75
2023/01/09 01:56:23;;;;;;;18.05;14.23;;;;;;;2.62;80.90;97861.19;5108637;28;20062;-75
2023/01/09 01:58:57;;;;;;;20.88;14.32;;;;;;;2.61;80.79;97843.78;5108103;28;20036;-74
2023/01/09 02:01:25;;;;;;;19.35;14.10;;;;;;;2.37;80.77;97848.41;5109488;28;20119;-73
2023/01/09 02:03:54;;;;;;;20.30;14.45;;;;;;;2.61;80.77;97838.56;5108649;28;20086;-73
2023/01/09 02:06:21;;;;;;;19.33;14.40;;;;;;;2.62;80.84;97832.41;5108712;28;20050;-73
2023/01/09 02:08:49;;;;;;;21.83;14.90;;;;;;;2.62;80.91;97831.56;5108482;28;20117;-73
2023/01/09 02:11:18;;;;;;;18.45;14.20;;;;;;;2.07;81.03;97740.03;5108525;28;20035;-74
2023/01/09 02:13:47;;;;;;;18.70;13.68;;;;;;;2.66;81.02;97812.19;5108364;28;20059;-74
2023/01/09 02:16:27;;;;;;;21.55;16.30;;;;;;;2.64;81.30;97806.19;5109854;28;20055;-75
2023/01/09 02:19:06;;;;;;;22.27;15.52;;;;;;;2.62;81.39;97802.78;5108490;28;20036;-74
2023/01/09 02:21:43;;;;;;;20.45;15.43;;;;;;;2.59;81.64;97797.72;5108779;28;20322;-74
2023/01/09 02:24:49;;;;;;;18.92;15.18;;;;;;;2.33;81.77;97752.72;5108514;28;20040;-74
2023/01/09 02:27:50;;;;;;;18.13;14.40;;;;;;;2.59;81.81;97784.63;5069005;28;20044;-74
2023/01/09 02:30:35;;;;;;;17.58;13.93;;;;;;;2.61;81.73;97767.94;5058414;28;20059;-74
2023/01/09 02:33:20;;;;;;;20.13;15.15;;;;;;;2.60;81.46;97766.25;5109396;28;20119;-74
2023/01/09 02:36:02;;;;;;;17.08;14.25;;;;;;;2.63;81.57;97754.78;5109166;28;20035;-74
2023/01/09 02:38:35;;;;;;;17.15;11.93;;;;;;;2.64;81.51;97748.63;5091439;28;20040;-74
2023/01/09 02:41:08;;;;;;;15.80;12.80;;;;;;;2.64;81.50;97759.09;5107648;28;20062;-74
2023/01/09 02:43:35;;;;;;;17.88;12.80;;;;;;;2.67;81.24;97749.34;5091831;28;20051;-74
2023/01/09 02:46:04;;;;;;;15.10;11.88;;;;;;;2.68;81.37;97747.56;5108831;28;20288;-74
2023/01/09 02:48:33;;;;;;;14.55;12.40;;;;;;;2.68;81.30;97755.41;5108408;28;20212;-74
2023/01/09 02:51:11;;;;;;;14.32;12.57;;;;;;;2.65;81.45;97745.09;5107630;28;20040;-74
2023/01/09 02:53:54;;;;;;;14.75;12.88;;;;;;;2.13;81.28;97670.03;5107179;28;20043;-74
2023/01/09 02:56:55;;;;;;;15.30;11.82;;;;;;;1.83;81.39;97624.47;5107959;28;20060;-74
2023/01/09 02:59:26;;;;;;;14.77;12.13;;;;;;;2.63;81.44;97757.41;5050501;28;20050;-74
2023/01/09 03:02:17;;;;;;;16.75;11.98;;;;;;;2.63;81.50;97744.31;5108091;28;20216;-73
2023/01/09 03:04:57;;;;;;;14.68;12.32;;;;;;;2.62;81.48;97745.25;5109058;28;20040;-74
2023/01/09 03:07:31;;;;;;;14.85;12.18;;;;;;;2.65;81.43;97745.94;5109575;28;20040;-74
2023/01/09 03:10:08;;;;;;;14.70;12.87;;;;;;;2.67;81.46;97744.09;5094035;28;20036;-73
2023/01/09 03:12:37;;;;;;;14.50;11.88;;;;;;;2.71;81.35;97743.03;5109196;28;20494;-73
2023/01/09 03:15:07;;;;;;;14.93;12.25;;;;;;;2.74;81.32;97735.03;5109236;28;20085;-73
2023/01/09 03:17:46;;;;;;;16.35;12.30;;;;;;;2.75;81.37;97728.03;5109370;28;20071;-73
2023/01/09 03:20:16;;;;;;;16.48;13.38;;;;;;;2.73;81.36;97722.88;5108376;28;20042;-73
2023/01/09 03:22:52;;;;;;;15.20;12.15;;;;;;;2.78;81.41;97735.72;5106990;28;20260;-74
2023/01/09 03:25:20;;;;;;;13.40;11.00;;;;;;;2.82;81.37;97727.66;5110924;28;20063;-74
2023/01/09 03:27:49;;;;;;;16.08;12.45;;;;;;;-0.55;81.02;97157.63;5077796;28;20138;-74
2023/01/09 03:30:17;;;;;;;15.32;11.88;;;;;;;2.86;81.34;97731.81;5111118;28;20040;-74
2023/01/09 03:32:45;;;;;;;16.17;12.80;;;;;;;2.88;81.26;97716.03;5110062;28;20059;-74
2023/01/09 03:35:12;;;;;;;16.50;12.63;;;;;;;-1.26;80.66;97301.97;5112917;28;20153;-74
2023/01/09 03:37:39;;;;;;;15.55;12.40;;;;;;;-0.60;81.20;97121.41;5112987;28;20115;-74
2023/01/09 03:40:07;;;;;;;16.23;13.13;;;;;;;2.86;81.63;97699.56;5113698;28;20116;-74
2023/01/09 03:42:34;;;;;;;15.45;11.93;;;;;;;2.87;81.79;97728.28;5113215;28;20040;-74
2023/01/09 03:45:01;;;;;;;16.20;14.25;;;;;;;2.92;81.74;97730.66;5095306;28;20117;-73
2023/01/09 03:47:28;;;;;;;16.63;13.63;;;;;;;2.96;81.70;97706.03;5111007;28;20058;-73
2023/01/09 03:49:56;;;;;;;16.77;13.05;;;;;;;2.96;82.16;97699.94;5111837;28;20208;-74
2023/01/09 03:52:23;;;;;;;18.63;14.48;;;;;;;2.96;81.72;97708.66;5111134;28;20036;-73
2023/01/09 03:54:50;;;;;;;15.48;12.40;;;;;;;2.99;81.78;97707.63;5110096;28;20047;-73
2023/01/09 03:57:17;;;;;;;16.85;13.05;;;;;;;2.60;81.79;97630.25;5092884;28;20322;-73
2023/01/09 03:59:45;;;;;;;17.40;14.15;;;;;;;3.05;81.69;97697.72;5110718;28;20060;-73
2023/01/09 04:02:11;;;;;;;15.82;13.77;;;;;;;2.81;81.87;97657.94;5110461;28;20040;-73
2023/01/09 04:04:38;;;;;;;16.05;12.35;;;;;;;2.19;81.80;97548.66;5109940;28;20031;-73
2023/01/09 04:07:06;;;;;;;20.23;12.60;;;;;;;2.18;81.90;97544.34;5109870;28;20036;-73
2023/01/09 04:09:33;;;;;;;17.13;12.20;;;;;;;3.05;82.20;97675.91;5111522;28;20058;-74
2023/01/09 04:12:00;;;;;;;15.55;13.35;;;;;;;1.87;82.31;97475.34;5109634;28;20066;-73
2023/01/09 04:14:27;;;;;;;16.58;13.45;;;;;;;3.05;82.36;97649.75;5091980;28;20040;-74
2023/01/09 04:16:54;;;;;;;17.38;12.18;;;;;;;2.79;82.51;97597.00;5109718;28;20051;-73
2023/01/09 04:19:21;;;;;;;16.05;12.57;;;;;;;3.10;82.75;97642.50;5109851;28;20318;-74
2023/01/09 04:21:48;;;;;;;15.93;12.48;;;;;;;3.11;82.74;97642.41;5110935;28;20110;-74
2023/01/09 04:24:17;;;;;;;14.35;11.10;;;;;;;3.16;82.79;97634.34;5110561;28;20031;-73
2023/01/09 04:26:44;;;;;;;14.10;12.38;;;;;;;3.19;82.88;97624.53;5110388;28;20276;-73
2023/01/09 04:29:13;;;;;;;14.13;10.50;;;;;;;3.24;82.82;97634.78;5110685;28;20042;-74
2023/01/09 04:31:39;;;;;;;13.07;10.65;;;;;;;3.27;82.93;97618.91;5109404;28;20089;-74
2023/01/09 04:34:06;;;;;;;12.32;10.65;;;;;;;2.98;82.91;97567.25;5109857;28;20299;-74
2023/01/09 04:36:34;;;;;;;14.77;11.07;;;;;;;3.36;82.91;97626.25;5109103;28;20074;-74
2023/01/09 04:39:02;;;;;;;12.68;9.32;;;;;;;3.02;82.75;97561.78;5110128;28;20059;-73
2023/01/09 04:41:48;;;;;;;13.95;11.05;;;;;;;3.45;83.10;97625.78;5111136;28;20054;-73
2023/01/09 04:44:15;;;;;;;13.75;10.20;;;;;;;3.52;83.10;97631.53;5108474;28;20292;-74
2023/01/09 04:46:42;;;;;;;12.25;10.23;;;;;;;3.58;83.05;97625.09;5106579;28;20043;-74
2023/01/09 04:49:09;;;;;;;11.65;9.88;;;;;;;3.62;83.45;97627.47;5108829;28;20044;-75
2023/01/09 04:51:36;;;;;;;12.85;9.77;;;;;;;3.66;83.79;97622.91;5091289;28;20051;-75
2023/01/09 04:54:03;;;;;;;11.63;9.43;;;;;;;3.70;83.63;97617.41;5107638;28;20214;-74
2023/01/09 04:56:31;;;;;;;12.20;10.65;;;;;;;3.76;83.74;97621.47;5108253;28;20046;-74
2023/01/09 04:58:58;;;;;;;10.40;8.52;;;;;;;3.78;84.04;97615.22;5108591;28;20040;-74
2023/01/09 05:01:25;;;;;;;11.68;9.43;;;;;;;3.82;83.87;97611.50;5108002;28;20042;-74
2023/01/09 05:03:52;;;;;;;10.85;8.50;;;;;;;3.87;84.02;97607.78;5107925;28;20036;-74
2023/01/09 05:06:19;;;;;;;10.30;8.82;;;;;;;3.27;83.65;97515.94;5108466;28;20105;-74
2023/01/09 05:08:46;;;;;;;14.63;11.27;;;;;;;3.00;84.02;97479.03;5108046;28;20058;-74
2023/01/09 05:11:13;;;;;;;13.75;11.05;;;;;;;3.92;83.87;97608.38;5109603;28;20280;-74
2023/01/09 05:13:42;;;;;;;15.30;11.93;;;;;;;2.36;83.63;97351.75;5107663;28;20044;-74
2023/01/09 05:16:09;;;;;;;14.82;11.07;;;;;;;3.94;84.13;97612.59;5110145;28;20042;-74
2023/01/09 05:18:37;;;;;;;14.85;11.38;;;;;;;3.79;84.05;97580.22;5108031;28;20119;-74
2023/01/09 05:21:04;;;;;;;14.82;11.20;;;;;;;3.96;83.70;97602.88;5106889;28;20279;-73
2023/01/09 05:23:31;;;;;;;12.75;10.65;;;;;;;3.98;83.64;97600.16;5108127;28;20353;-74
2023/01/09 05:25:58;;;;;;;15.25;12.07;;;;;;;4.00;83.67;97601.75;5108539;28;20058;-74
2023/01/09 05:28:25;;;;;;;14.25;11.60;;;;;;;4.01;83.68;97603.44;5108275;28;20043;-74
2023/01/09 05:30:53;;;;;;;14.85;10.63;;;;;;;3.80;83.66;97557.50;5108872;28;20036;-75
2023/01/09 05:33:20;;;;;;;15.75;12.73;;;;;;;4.07;84.03;97594.41;5107795;28;20036;-74
2023/01/09 05:35:47;;;;;;;16.10;12.55;;;;;;;3.52;84.26;97527.59;5106507;28;20300;-74
2023/01/09 05:38:13;;;;;;;13.27;11.73;;;;;;;4.07;84.25;97605.72;5108347;28;20276;-74
2023/01/09 05:40:40;;;;;;;16.23;13.13;;;;;;;4.08;84.25;97603.94;5109033;28;20054;-74
2023/01/09 05:43:07;;;;;;;16.95;13.15;;;;;;;3.48;84.32;97493.81;5108145;28;20044;-74
2023/01/09 05:45:34;;;;;;;19.45;13.35;;;;;;;4.09;83.94;97600.41;5106869;28;20114;-74
2023/01/09 05:48:03;;;;;;;15.75;13.40;;;;;;;4.11;83.94;97594.13;5107286;28;20186;-74
2023/01/09 05:50:30;;;;;;;18.30;13.00;;;;;;;4.12;83.98;97594.97;5107649;28;20040;-74
2023/01/09 05:52:56;;;;;;;19.35;14.05;;;;;;;4.13;84.18;97584.41;5107989;28;20046;-74
2023/01/09 05:55:23;;;;;;;15.48;12.32;;;;;;;4.13;84.18;97584.41;5107189;28;20093;-74
2023/01/09 05:57:50;;;;;;;15.82;13.77;;;;;;;4.14;84.01;97586.09;5107281;28;20367;-74
2023/01/09 06:00:18;;;;;;;17.60;14.05;;;;;;;4.16;84.06;97581.59;5106711;28;20039;-74
2023/01/09 06:02:44;;;;;;;14.57;11.50;;;;;;;4.16;84.09;97586.84;5107393;28;20040;-75
2023/01/09 06:05:13;;;;;;;16.08;13.90;;;;;;;4.17;84.09;97593.78;5107522;28;20036;-74
2023/01/09 06:07:40;;;;;;;15.88;13.02;;;;;;;4.20;84.12;97592.78;5107714;28;20040;-74
2023/01/09 06:10:08;;;;;;;15.10;11.95;;;;;;;4.22;84.27;97595.34;5107669;28;20107;-74
2023/01/09 06:12:35;;;;;;;15.98;13.98;;;;;;;3.27;84.24;97433.00;5106975;28;20066;-74
2023/01/09 06:15:02;;;;;;;16.67;13.75;;;;;;;4.24;84.33;97596.09;5107332;28;20031;-74
2023/01/09 06:17:29;;;;;;;18.27;14.15;;;;;;;3.56;84.07;97475.03;5106632;28;20292;-75
2023/01/09 06:19:56;;;;;;;15.65;12.48;;;;;;;4.27;84.10;97588.03;5107256;28;20195;-75
2023/01/09 06:22:24;;;;;;;14.60;12.43;;;;;;;4.28;83.95;97582.72;5107481;28;20039;-74
2023/01/09 06:24:51;;;;;;;13.70;10.55;;;;;;;4.32;84.21;97584.22;5107175;28;20032;-75
2023/01/09 06:27:18;;;;;;;12.55;9.85;;;;;;;3.80;84.34;97494.59;5106970;28;20040;-75
2023/01/09 06:29:45;;;;;;;10.90;8.85;;;;;;;4.48;84.54;97592.03;5106251;28;20036;-75
2023/01/09 06:32:11;;;;;;;9.40;7.93;;;;;;;4.56;84.53;97589.81;5106500;28;20048;-74
2023/01/09 06:34:38;;;;;;;7.63;6.43;;;;;;;3.90;84.39;97472.16;5105857;28;20046;-74
2023/01/09 06:37:05;;;;;;;8.98;5.80;;;;;;;4.17;84.35;97520.38;5105745;28;20106;-75
2023/01/09 06:39:33;;;;;;;9.00;6.28;;;;;;;4.85;84.88;97598.59;5105795;28;20047;-75
2023/01/09 06:42:00;;;;;;;6.55;5.28;;;;;;;4.92;84.77;97597.31;5106978;28;20052;-74
2023/01/09 06:44:27;;;;;;;7.70;5.75;;;;;;;4.64;84.79;97534.25;5106925;28;20042;-75
2023/01/09 06:46:53;;;;;;;7.22;4.70;;;;;;;5.10;84.96;97596.19;5106963;28;20295;-74
2023/01/09 06:49:23;;;;;;;6.68;5.10;;;;;;;5.21;85.37;97595.53;5106091;28;20046;-74
2023/01/09 06:51:50;;;;;;;6.47;4.43;;;;;;;5.32;85.02;97590.47;5105646;28;20040;-74
2023/01/09 06:54:17;;;;;;;7.05;4.60;;;;;;;5.39;84.75;97602.28;5105457;28;20038;-75
2023/01/09 06:56:45;;;;;;;6.70;4.55;;;;;;;5.47;84.32;97598.34;5107032;28;20050;-75
2023/01/09 06:59:12;;;;;;;5.20;4.18;;;;;;;5.54;84.61;97608.38;5106626;28;20055;-75
2023/01/09 07:01:39;;;;;;;6.13;4.13;;;;;;;5.61;84.36;97609.66;5106109;28;20204;-74
2023/01/09 07:04:06;;;;;;;7.72;4.50;;;;;;;5.66;84.26;97606.75;5106545;28;20032;-74
2023/01/09 07:06:34;;;;;;;5.97;3.95;;;;;;;5.74;84.34;97622.88;5106537;28;20070;-75
2023/01/09 07:09:01;;;;;;;5.07;4.00;;;;;;;5.81;84.16;97623.34;5107100;28;20044;-74
2023/01/09 07:11:28;;;;;;;4.32;3.53;;;;;;;5.88;84.04;97646.53;5110229;28;20062;-75
2023/01/09 07:13:57;;;;;;;5.88;3.90;;;;;;;5.95;83.64;97629.41;5110215;28;20058;-75
2023/01/09 07:16:23;;;;;;;6.07;3.90;;;;;;;6.02;83.51;97628.09;5110840;28;20036;-75
2023/01/09 07:18:51;;;;;;;4.75;3.72;;;;;;;5.50;83.23;97540.34;5110358;28;20054;-75
2023/01/09 07:21:18;;;;;;;4.88;3.53;;;;;;;5.81;83.18;97579.50;5093002;28;20071;-75
2023/01/09 07:23:45;;;;;;;5.35;4.30;;;;;;;6.13;83.27;97637.91;5110503;28;20047;-74
2023/01/09 07:26:12;;;;;;;5.38;3.72;;;;;;;6.19;83.66;97644.56;5110236;28;20051;-75
2023/01/09 07:28:38;;;;;;;5.40;3.90;;;;;;;6.26;83.07;97648.47;5110151;28;20253;-75
2023/01/09 07:31:07;;;;;;;5.95;3.47;;;;;;;6.30;82.88;97648.19;5109431;28;20031;-75
2023/01/09 07:33:34;;;;;;;4.88;3.50;;;;;;;6.33;82.76;97657.66;5109572;28;20051;-75
2023/01/09 07:36:01;;;;;;;5.10;3.95;;;;;;;6.35;82.86;97656.63;5110091;28;20270;-75
2023/01/09 07:38:27;;;;;;;5.95;4.38;;;;;;;6.37;82.75;97659.16;5110276;28;20195;-75
2023/01/09 07:40:54;;;;;;;5.88;4.45;;;;;;;6.39;82.70;97666.00;5110145;28;20040;-75
2023/01/09 07:43:21;;;;;;;6.35;4.35;;;;;;;6.40;82.65;97672.97;5110137;28;20207;-75
2023/01/09 07:45:48;;;;;;;7.85;5.35;;;;;;;6.39;82.59;97688.84;5109913;28;20177;-74
2023/01/09 07:48:16;;;;;;;8.52;6.30;;;;;;;6.40;82.57;97704.53;5092267;28;20055;-75
2023/01/09 07:50:43;;;;;;;10.05;7.10;;;;;;;6.39;82.78;97728.31;5109920;28;20333;-75
2023/01/09 07:53:10;;;;;;;9.85;8.23;;;;;;;5.56;81.86;97634.56;5109360;28;20051;-75
2023/01/09 07:55:37;;;;;;;10.50;9.25;;;;;;;6.14;81.54;97744.81;5109466;28;20048;-75
2023/01/09 07:58:04;;;;;;;13.88;11.35;;;;;;;5.95;80.86;97753.00;5108821;28;20036;-75
2023/01/09 08:00:32;;;;;;;13.63;12.27;;;;;;;5.76;80.67;97776.09;5108572;28;20291;-75
2023/01/09 08:02:59;;;;;;;14.32;11.30;;;;;;;5.56;80.40;97779.94;5109630;28;20036;-75
2023/01/09 08:05:27;;;;;;;14.82;11.15;;;;;;;5.44;80.60;97794.66;5091824;28;20296;-75
2023/01/09 08:07:54;;;;;;;15.77;12.90;;;;;;;5.36;80.94;97790.78;5109938;28;20050;-75
2023/01/09 08:10:21;;;;;;;17.10;13.60;;;;;;;5.32;80.85;97782.22;5109351;28;20054;-75
2023/01/09 08:12:49;;;;;;;18.27;13.82;;;;;;;5.30;80.94;97797.25;5108345;28;20062;-74
2023/01/09 08:15:16;;;;;;;14.95;11.30;;;;;;;5.27;80.95;97804.44;5109432;28;20207;-75
2023/01/09 08:17:45;;;;;;;14.55;12.13;;;;;;;5.24;80.94;97815.97;5109416;28;20043;-75
2023/01/09 08:20:13;;;;;;;14.45;11.95;;;;;;;5.18;80.48;97810.25;5108306;28;20039;-75
2023/01/09 08:22:43;;;;;;;13.23;10.75;;;;;;;5.11;80.26;97797.47;5108611;28;20058;-74
2023/01/09 08:25:10;;;;;;;12.45;10.48;;;;;;;4.17;80.26;97637.50;5108124;28;20036;-75
2023/01/09 08:27:37;;;;;;;11.25;9.90;;;;;;;5.09;80.50;97798.47;5108373;28;20036;-75
2023/01/09 08:30:05;;;;;;;13.65;10.45;;;;;;;4.90;80.31;97782.09;5107706;28;20066;-75
2023/01/09 08:32:32;;;;;;;12.65;10.52;;;;;;;4.65;80.18;97744.09;5108827;28;20044;-75
2023/01/09 08:34:58;;;;;;;11.98;9.68;;;;;;;5.09;80.15;97819.50;5109004;28;20044;-75
2023/01/09 08:37:25;;;;;;;12.65;9.70;;;;;;;5.09;79.98;97828.22;5108964;28;20044;-75
2023/01/09 08:39:53;;;;;;;11.50;9.93;;;;;;;5.09;80.05;97824.75;5107970;28;20078;-75
2023/01/09 08:47:50;;;;;;;14.98;10.88;;;;;;;5.04;79.91;97838.13;5108858;28;20055;-74
2023/01/09 08:50:17;;;;;;;13.80;10.10;;;;;;;5.06;79.65;97845.94;5108625;28;20058;-75
2023/01/09 08:52:43;;;;;;;13.45;9.88;;;;;;;5.05;79.21;97847.69;5108545;28;20050;-75
2023/01/09 08:55:12;;;;;;;13.25;10.75;;;;;;;5.02;79.16;97836.53;5107721;28;20047;-75
2023/01/09 08:57:47;;;;;;;11.93;10.38;;;;;;;5.01;79.25;97855.84;5107519;28;20051;-74
2023/01/09 09:00:15;;;;;;;12.40;9.75;;;;;;;4.20;79.10;97716.03;5108612;28;20040;-74
2023/01/09 09:02:42;;;;;;;12.65;10.82;;;;;;;4.99;79.02;97853.31;5107865;28;20119;-74
2023/01/09 09:05:10;;;;;;;12.07;9.73;;;;;;;4.95;79.05;97848.31;5107571;28;20036;-75
2023/01/09 09:07:37;;;;;;;12.15;9.57;;;;;;;4.96;79.02;97850.84;5107665;28;20310;-75
2023/01/09 09:10:05;;;;;;;15.73;11.10;;;;;;;4.61;79.01;97808.16;5108404;28;20363;-75
2023/01/09 09:12:33;;;;;;;12.65;9.95;;;;;;;4.96;79.01;97863.97;5107174;28;20154;-75
2023/01/09 09:15:22;;;;;;;13.80;9.73;;;;;;;4.97;78.96;97875.31;5107039;28;20051;-74
2023/01/09 09:17:49;;;;;;;13.13;9.98;;;;;;;4.97;78.83;97875.31;5108448;28;20046;-74
2023/01/09 09:20:16;;;;;;;11.85;9.63;;;;;;;4.99;78.71;97871.69;5107532;28;20043;-74
2023/01/09 09:22:45;;;;;;;10.43;7.70;;;;;;;4.44;78.32;97795.13;5090932;28;20308;-74
2023/01/09 09:25:13;;;;;;;11.70;8.68;;;;;;;5.06;78.18;97901.06;5107519;28;20036;-75
2023/01/09 09:27:41;;;;;;;8.57;7.35;;;;;;;5.10;78.01;97899.97;5107498;28;20062;-74
2023/01/09 09:30:09;;;;;;;10.05;7.68;;;;;;;5.11;77.82;97897.25;5107576;28;20191;-75
2023/01/09 09:32:36;;;;;;;10.90;8.50;;;;;;;5.16;77.86;97896.16;5106612;28;20284;-75
2023/01/09 09:35:04;;;;;;;8.32;6.55;;;;;;;4.95;77.87;97854.41;5107738;28;20039;-75
2023/01/09 09:37:31;;;;;;;9.40;6.10;;;;;;;5.26;77.98;97903.41;5107801;28;20040;-74
2023/01/09 09:39:57;;;;;;;7.93;6.65;;;;;;;5.32;78.13;97868.91;5107719;28;20051;-75
2023/01/09 09:45:57;;;;;;;7.03;5.43;;;;;;;5.40;78.38;97914.00;5107607;28;20081;-75
2023/01/09 09:48:35;;;;;;;6.55;5.00;;;;;;;5.44;78.47;97918.13;5106804;28;20342;-74
2023/01/09 09:51:35;;;;;;;6.30;5.13;;;;;;;5.49;78.48;97891.59;5107857;28;20044;-74
2023/01/09 09:54:06;;;;;;;6.85;4.97;;;;;;;5.51;78.55;97905.50;5108804;28;20284;-75
2023/01/09 09:56:48;;;;;;;5.65;4.95;;;;;;;5.55;78.45;97908.78;5106729;28;20066;-74
2023/01/09 09:59:18;;;;;;;6.10;4.13;;;;;;;5.57;78.87;97907.75;5107334;28;20314;-74
2023/01/09 10:01:52;;;;;;;5.15;4.18;;;;;;;5.60;78.92;97907.59;5107424;28;20300;-74
2023/01/09 10:04:23;;;;;;;5.75;4.25;;;;;;;5.44;79.13;97870.84;5107343;28;20294;-74
2023/01/09 10:06:55;;;;;;;5.43;4.07;;;;;;;5.64;79.28;97916.16;5106491;28;20047;-74
2023/01/09 10:09:33;;;;;;;5.35;4.50;;;;;;;5.66;79.60;97916.91;5107050;28;20071;-74
2023/01/09 10:12:12;;;;;;;4.85;4.13;;;;;;;5.66;79.80;97895.88;5106474;28;20058;-74
2023/01/09 10:14:40;;;;;;;5.55;4.18;;;;;;;4.80;79.63;97752.88;5105815;28;20050;-74
2023/01/09 10:17:30;;;;;;;5.35;3.80;;;;;;;5.31;79.81;97837.50;5107618;28;20050;-74
2023/01/09 10:20:18;;;;;;;5.72;3.92;;;;;;;5.68;79.61;97889.59;5106709;28;20040;-75
2023/01/09 10:22:55;;;;;;;5.63;3.35;;;;;;;5.69;79.60;97891.28;5105315;28;20044;-74
2023/01/09 10:25:31;;;;;;;4.85;3.63;;;;;;;5.69;79.54;97900.94;5106093;28;20032;-74
2023/01/09 10:28:08;;;;;;;4.22;3.03;;;;;;;5.68;79.42;97886.97;5107332;28;20040;-74
2023/01/09 10:30:42;;;;;;;5.68;3.67;;;;;;;5.70;79.49;97882.47;5106859;28;20063;-74
2023/01/09 10:33:26;;;;;;;4.57;2.80;;;;;;;5.70;79.80;97879.84;5107073;28;20040;-74
2023/01/09 10:36:18;;;;;;;4.47;3.08;;;;;;;5.71;79.72;97878.91;5105383;28;20046;-74
2023/01/09 10:38:49;;;;;;;4.13;2.70;;;;;;;5.12;79.63;97793.91;5105571;28;20036;-74
2023/01/09 10:41:22;;;;;;;3.95;2.50;;;;;;;5.74;79.62;97856.84;5105381;28;20036;-74
2023/01/09 10:43:56;;;;;;;3.40;2.15;;;;;;;5.76;79.59;97857.59;5105929;28;20085;-74
2023/01/09 10:46:29;;;;;;;3.75;3.28;;;;;;;5.76;79.59;97850.56;5105336;28;20115;-74
2023/01/09 10:49:01;;;;;;;3.38;2.30;;;;;;;5.80;79.55;97855.63;5106471;28;20045;-74
2023/01/09 10:51:37;;;;;;;3.33;2.50;;;;;;;5.82;79.34;97851.13;5106118;28;20204;-75
2023/01/09 10:54:12;;;;;;;3.15;2.35;;;;;;;5.81;79.15;97855.53;5088586;28;20036;-75
2023/01/09 10:56:44;;;;;;;3.63;2.20;;;;;;;5.11;79.01;97749.34;5106140;28;20036;-74
2023/01/09 10:59:12;;;;;;;3.40;2.17;;;;;;;5.84;78.99;97865.03;5105388;28;20040;-74
2023/01/09 11:01:41;;;;;;;3.00;2.00;;;;;;;5.86;78.95;97848.22;5106106;28;20310;-75
2023/01/09 11:04:20;;;;;;;2.97;1.88;;;;;;;5.85;78.51;97846.53;5104933;28;20116;-75
2023/01/09 11:06:51;;;;;;;2.80;1.90;;;;;;;5.88;78.49;97850.75;5105920;28;20040;-75
2023/01/09 11:09:20;;;;;;;3.05;2.00;;;;;;;5.91;78.31;97859.31;5106480;28;20334;-74
2023/01/09 11:11:47;;;;;;;3.08;2.13;;;;;;;4.32;78.08;97584.22;5105374;28;20060;-75
2023/01/09 11:14:17;;;;;;;2.85;1.75;;;;;;;5.96;78.21;97846.72;5105393;28;20051;-75
2023/01/09 11:16:56;;;;;;;2.88;1.95;;;;;;;5.82;77.91;97815.16;5104582;28;20046;-74
2023/01/09 11:19:25;;;;;;;2.88;1.85;;;;;;;5.71;78.00;97792.16;5104866;28;20322;-75
2023/01/09 11:22:06;;;;;;;2.80;1.70;;;;;;;5.90;78.03;97833.09;5105877;28;20039;-75
2023/01/09 11:24:33;;;;;;;3.00;1.80;;;;;;;6.04;78.24;97854.16;5105697;28;20066;-74
2023/01/09 11:27:25;;;;;;;2.95;2.10;;;;;;;5.88;77.58;97820.06;5106163;28;20040;-75
2023/01/09 11:30:25;;;;;;;2.00;1.40;;;;;;;5.66;77.79;97774.97;5105860;28;20070;-75
2023/01/09 11:32:53;;;;;;;2.55;1.55;;;;;;;5.50;77.90;97772.41;5104920;28;20040;-74
2023/01/09 11:35:36;;;;;;;2.50;1.50;;;;;;;6.10;77.59;97864.31;5106069;28;20241;-75
2023/01/09 11:38:08;;;;;;;2.25;1.58;;;;;;;5.34;77.79;97795.28;5105034;28;20036;-75
2023/01/09 11:40:48;;;;;;;2.22;1.63;;;;;;;6.11;77.41;97873.88;5105761;28;20032;-74
2023/01/09 11:43:19;;;;;;;2.80;1.70;;;;;;;5.75;77.47;97816.47;5104831;28;20044;-75
2023/01/09 11:45:50;;;;;;;2.42;1.60;;;;;;;6.14;77.50;97883.38;5106107;28;20056;-74
2023/01/09 11:48:30;;;;;;;2.10;1.40;;;;;;;5.74;77.22;97810.38;5106276;28;20043;-75
2023/01/09 11:51:01;;;;;;;2.28;1.50;;;;;;;6.14;77.45;97875.47;5105267;28;20349;-75
2023/01/09 11:53:28;;;;;;;2.50;1.50;;;;;;;6.17;77.40;97899.81;5104718;28;20035;-75
2023/01/09 11:56:02;;;;;;;2.53;1.50;;;;;;;4.60;77.12;97656.06;5106526;28;20296;-75
2023/01/09 11:58:33;;;;;;;2.35;1.60;;;;;;;6.18;77.31;97906.78;5109104;28;20055;-75